sensor_id;sensor_type;location;lat;lon;timestamp;P1;durP1;ratioP1;P2;durP2;ratioP2
47725;SDS011;33483;48.294;16.388;2022-12-16T00:01:43;98.38;;;33.08;;
47725;SDS011;33483;48.294;16.388;2022-12-16T00:04:13;80.57;;;29.75;;
47725;SDS011;33483;48.294;16.388;2022-12-16T00:06:40;103.15;;;31.23;;
47725;SDS011;33483;48.294;16.388;2022-12-16T00:09:07;83.78;;;29.25;;
47725;SDS011;33483;48.294;16.388;2022-12-16T00:11:35;92.97;;;30.35;;
47725;SDS011;33483;48.294;16.388;2022-12-16T00:14:02;76.75;;;28.77;;
47725;SDS011;33483;48.294;16.388;2022-12-16T00:16:29;86.97;;;31.40;;
47725;SDS011;33483;48.294;16.388;2022-12-16T00:18:59;81.00;;;29.23;;
47725;SDS011;33483;48.294;16.388;2022-12-16T00:21:26;72.80;;;28.77;;
47725;SDS011;33483;48.294;16.388;2022-12-16T00:23:56;73.10;;;26.67;;
47725;SDS011;33483;48.294;16.388;2022-12-16T00:26:23;73.30;;;26.80;;
47725;SDS011;33483;48.294;16.388;2022-12-16T00:28:51;71.05;;;25.13;;
47725;SDS011;33483;48.294;16.388;2022-12-16T00:31:20;66.68;;;26.92;;
47725;SDS011;33483;48.294;16.388;2022-12-16T00:33:47;61.25;;;25.75;;
47725;SDS011;33483;48.294;16.388;2022-12-16T00:36:18;68.80;;;25.48;;
47725;SDS011;33483;48.294;16.388;2022-12-16T00:38:50;57.05;;;23.58;;
47725;SDS011;33483;48.294;16.388;2022-12-16T00:41:19;69.50;;;25.17;;
47725;SDS011;33483;48.294;16.388;2022-12-16T00:43:46;62.40;;;25.38;;
47725;SDS011;33483;48.294;16.388;2022-12-16T00:46:13;67.90;;;25.52;;
47725;SDS011;33483;48.294;16.388;2022-12-16T00:48:41;66.07;;;25.25;;
47725;SDS011;33483;48.294;16.388;2022-12-16T00:51:08;59.75;;;24.17;;
47725;SDS011;33483;48.294;16.388;2022-12-16T00:53:35;60.47;;;25.05;;
47725;SDS011;33483;48.294;16.388;2022-12-16T00:56:05;62.72;;;24.52;;
47725;SDS011;33483;48.294;16.388;2022-12-16T00:58:37;61.03;;;24.45;;
47725;SDS011;33483;48.294;16.388;2022-12-16T01:01:04;64.70;;;24.33;;
47725;SDS011;33483;48.294;16.388;2022-12-16T01:03:32;59.53;;;23.63;;
47725;SDS011;33483;48.294;16.388;2022-12-16T01:06:06;51.78;;;24.25;;
47725;SDS011;33483;48.294;16.388;2022-12-16T01:08:37;56.80;;;23.52;;
47725;SDS011;33483;48.294;16.388;2022-12-16T01:11:04;53.45;;;22.17;;
47725;SDS011;33483;48.294;16.388;2022-12-16T01:13:32;59.13;;;22.35;;
47725;SDS011;33483;48.294;16.388;2022-12-16T01:16:02;51.17;;;21.95;;
47725;SDS011;33483;48.294;16.388;2022-12-16T01:18:29;54.65;;;22.77;;
47725;SDS011;33483;48.294;16.388;2022-12-16T01:21:04;59.15;;;22.65;;
47725;SDS011;33483;48.294;16.388;2022-12-16T01:23:34;54.00;;;22.35;;
47725;SDS011;33483;48.294;16.388;2022-12-16T01:26:01;55.63;;;21.95;;
47725;SDS011;33483;48.294;16.388;2022-12-16T01:28:29;45.65;;;21.48;;
47725;SDS011;33483;48.294;16.388;2022-12-16T01:30:57;52.60;;;22.50;;
47725;SDS011;33483;48.294;16.388;2022-12-16T01:33:31;46.42;;;21.40;;
47725;SDS011;33483;48.294;16.388;2022-12-16T01:36:07;50.78;;;20.48;;
47725;SDS011;33483;48.294;16.388;2022-12-16T01:38:40;43.10;;;20.65;;
47725;SDS011;33483;48.294;16.388;2022-12-16T01:41:07;47.35;;;21.73;;
47725;SDS011;33483;48.294;16.388;2022-12-16T01:43:36;47.70;;;22.40;;
47725;SDS011;33483;48.294;16.388;2022-12-16T01:46:11;49.03;;;22.33;;
47725;SDS011;33483;48.294;16.388;2022-12-16T01:51:23;50.58;;;21.27;;
47725;SDS011;33483;48.294;16.388;2022-12-16T01:53:58;44.08;;;20.83;;
47725;SDS011;33483;48.294;16.388;2022-12-16T01:56:31;35.33;;;16.80;;
47725;SDS011;33483;48.294;16.388;2022-12-16T01:59:00;44.83;;;21.27;;
47725;SDS011;33483;48.294;16.388;2022-12-16T02:01:28;42.15;;;19.58;;
47725;SDS011;33483;48.294;16.388;2022-12-16T02:03:56;37.50;;;19.15;;
47725;SDS011;33483;48.294;16.388;2022-12-16T02:06:24;40.55;;;19.48;;
47725;SDS011;33483;48.294;16.388;2022-12-16T02:08:52;36.95;;;18.20;;
47725;SDS011;33483;48.294;16.388;2022-12-16T02:37:18;24.30;;;14.40;;
47725;SDS011;33483;48.294;16.388;2022-12-16T02:40:00;20.77;;;13.73;;
47725;SDS011;33483;48.294;16.388;2022-12-16T02:42:46;20.80;;;13.60;;
47725;SDS011;33483;48.294;16.388;2022-12-16T02:45:24;21.70;;;12.73;;
47725;SDS011;33483;48.294;16.388;2022-12-16T02:47:55;19.15;;;12.55;;
47725;SDS011;33483;48.294;16.388;2022-12-16T02:50:35;21.10;;;13.38;;
47725;SDS011;33483;48.294;16.388;2022-12-16T02:53:06;21.92;;;13.30;;
47725;SDS011;33483;48.294;16.388;2022-12-16T03:04:25;16.88;;;11.00;;
47725;SDS011;33483;48.294;16.388;2022-12-16T03:07:01;21.63;;;11.90;;
47725;SDS011;33483;48.294;16.388;2022-12-16T03:09:32;20.40;;;12.48;;
47725;SDS011;33483;48.294;16.388;2022-12-16T03:12:02;16.35;;;10.80;;
47725;SDS011;33483;48.294;16.388;2022-12-16T03:14:38;17.25;;;11.13;;
47725;SDS011;33483;48.294;16.388;2022-12-16T03:17:11;16.25;;;10.82;;
47725;SDS011;33483;48.294;16.388;2022-12-16T03:19:42;16.75;;;11.05;;
47725;SDS011;33483;48.294;16.388;2022-12-16T03:22:19;16.15;;;11.02;;
47725;SDS011;33483;48.294;16.388;2022-12-16T03:24:49;16.10;;;10.52;;
47725;SDS011;33483;48.294;16.388;2022-12-16T03:27:28;15.68;;;10.52;;
47725;SDS011;33483;48.294;16.388;2022-12-16T03:30:04;14.75;;;10.20;;
47725;SDS011;33483;48.294;16.388;2022-12-16T03:37:54;16.70;;;10.48;;
47725;SDS011;33483;48.294;16.388;2022-12-16T03:40:24;16.58;;;10.82;;
47725;SDS011;33483;48.294;16.388;2022-12-16T03:42:53;16.38;;;10.75;;
47725;SDS011;33483;48.294;16.388;2022-12-16T03:45:24;17.95;;;11.65;;
47725;SDS011;33483;48.294;16.388;2022-12-16T03:47:55;17.50;;;11.90;;
47725;SDS011;33483;48.294;16.388;2022-12-16T03:50:27;18.83;;;12.10;;
47725;SDS011;33483;48.294;16.388;2022-12-16T03:52:57;19.52;;;12.77;;
47725;SDS011;33483;48.294;16.388;2022-12-16T03:55:25;17.88;;;12.45;;
47725;SDS011;33483;48.294;16.388;2022-12-16T03:57:52;17.75;;;11.95;;
47725;SDS011;33483;48.294;16.388;2022-12-16T04:00:20;17.95;;;12.00;;
47725;SDS011;33483;48.294;16.388;2022-12-16T04:02:47;20.52;;;13.63;;
47725;SDS011;33483;48.294;16.388;2022-12-16T04:05:15;18.33;;;12.30;;
47725;SDS011;33483;48.294;16.388;2022-12-16T04:07:42;19.50;;;13.20;;
47725;SDS011;33483;48.294;16.388;2022-12-16T04:10:09;18.55;;;12.35;;
47725;SDS011;33483;48.294;16.388;2022-12-16T04:12:36;17.55;;;11.43;;
47725;SDS011;33483;48.294;16.388;2022-12-16T04:15:23;18.02;;;12.23;;
47725;SDS011;33483;48.294;16.388;2022-12-16T04:18:12;18.45;;;12.82;;
47725;SDS011;33483;48.294;16.388;2022-12-16T04:21:02;18.33;;;12.25;;
47725;SDS011;33483;48.294;16.388;2022-12-16T04:23:49;15.30;;;9.82;;
47725;SDS011;33483;48.294;16.388;2022-12-16T04:26:39;18.40;;;11.80;;
47725;SDS011;33483;48.294;16.388;2022-12-16T04:29:25;22.05;;;13.13;;
47725;SDS011;33483;48.294;16.388;2022-12-16T04:31:52;23.15;;;13.57;;
47725;SDS011;33483;48.294;16.388;2022-12-16T04:34:22;19.48;;;13.45;;
47725;SDS011;33483;48.294;16.388;2022-12-16T04:37:00;23.13;;;13.60;;
47725;SDS011;33483;48.294;16.388;2022-12-16T04:39:47;21.15;;;13.40;;
47725;SDS011;33483;48.294;16.388;2022-12-16T04:42:46;20.83;;;12.95;;
47725;SDS011;33483;48.294;16.388;2022-12-16T04:45:32;24.48;;;13.85;;
47725;SDS011;33483;48.294;16.388;2022-12-16T04:48:17;20.15;;;13.15;;
47725;SDS011;33483;48.294;16.388;2022-12-16T04:51:03;19.13;;;12.95;;
47725;SDS011;33483;48.294;16.388;2022-12-16T04:53:49;19.13;;;12.75;;
47725;SDS011;33483;48.294;16.388;2022-12-16T04:56:35;20.05;;;12.52;;
47725;SDS011;33483;48.294;16.388;2022-12-16T04:59:21;22.92;;;13.18;;
47725;SDS011;33483;48.294;16.388;2022-12-16T05:02:06;16.17;;;10.23;;
47725;SDS011;33483;48.294;16.388;2022-12-16T05:07:38;20.15;;;12.57;;
47725;SDS011;33483;48.294;16.388;2022-12-16T05:10:24;17.95;;;11.93;;
47725;SDS011;33483;48.294;16.388;2022-12-16T05:13:12;18.80;;;12.32;;
47725;SDS011;33483;48.294;16.388;2022-12-16T05:15:59;18.35;;;12.55;;
47725;SDS011;33483;48.294;16.388;2022-12-16T05:18:44;22.67;;;12.47;;
47725;SDS011;33483;48.294;16.388;2022-12-16T05:21:30;22.55;;;13.40;;
47725;SDS011;33483;48.294;16.388;2022-12-16T05:24:16;19.13;;;12.38;;
47725;SDS011;33483;48.294;16.388;2022-12-16T05:27:02;21.60;;;13.02;;
47725;SDS011;33483;48.294;16.388;2022-12-16T05:29:48;23.42;;;13.70;;
47725;SDS011;33483;48.294;16.388;2022-12-16T05:32:39;20.30;;;12.90;;
47725;SDS011;33483;48.294;16.388;2022-12-16T05:35:27;21.27;;;12.38;;
47725;SDS011;33483;48.294;16.388;2022-12-16T05:38:13;24.17;;;14.82;;
47725;SDS011;33483;48.294;16.388;2022-12-16T05:40:59;20.80;;;13.53;;
47725;SDS011;33483;48.294;16.388;2022-12-16T05:43:45;23.00;;;13.90;;
47725;SDS011;33483;48.294;16.388;2022-12-16T05:46:30;17.83;;;11.25;;
47725;SDS011;33483;48.294;16.388;2022-12-16T05:52:02;20.08;;;13.20;;
47725;SDS011;33483;48.294;16.388;2022-12-16T05:54:48;23.85;;;13.85;;
47725;SDS011;33483;48.294;16.388;2022-12-16T05:57:33;24.58;;;14.23;;
47725;SDS011;33483;48.294;16.388;2022-12-16T06:00:20;37.40;;;18.20;;
47725;SDS011;33483;48.294;16.388;2022-12-16T06:03:05;31.13;;;15.68;;
47725;SDS011;33483;48.294;16.388;2022-12-16T06:05:51;45.05;;;21.38;;
47725;SDS011;33483;48.294;16.388;2022-12-16T06:08:42;40.50;;;20.77;;
47725;SDS011;33483;48.294;16.388;2022-12-16T06:11:28;34.00;;;18.33;;
47725;SDS011;33483;48.294;16.388;2022-12-16T06:14:14;26.98;;;14.77;;
47725;SDS011;33483;48.294;16.388;2022-12-16T06:17:02;23.95;;;13.95;;
47725;SDS011;33483;48.294;16.388;2022-12-16T06:19:48;24.65;;;13.93;;
47725;SDS011;33483;48.294;16.388;2022-12-16T06:22:34;25.05;;;13.75;;
47725;SDS011;33483;48.294;16.388;2022-12-16T06:25:22;22.67;;;13.13;;
47725;SDS011;33483;48.294;16.388;2022-12-16T06:28:08;24.05;;;13.00;;
47725;SDS011;33483;48.294;16.388;2022-12-16T06:30:53;26.80;;;14.30;;
47725;SDS011;33483;48.294;16.388;2022-12-16T06:36:25;20.85;;;12.73;;
47725;SDS011;33483;48.294;16.388;2022-12-16T06:39:11;27.88;;;14.80;;
47725;SDS011;33483;48.294;16.388;2022-12-16T06:41:57;25.77;;;14.82;;
47725;SDS011;33483;48.294;16.388;2022-12-16T06:44:43;28.70;;;16.23;;
47725;SDS011;33483;48.294;16.388;2022-12-16T06:47:29;26.10;;;15.60;;
47725;SDS011;33483;48.294;16.388;2022-12-16T06:50:15;25.92;;;15.05;;
47725;SDS011;33483;48.294;16.388;2022-12-16T06:53:10;27.70;;;14.30;;
47725;SDS011;33483;48.294;16.388;2022-12-16T06:55:56;25.00;;;14.32;;
47725;SDS011;33483;48.294;16.388;2022-12-16T06:58:45;22.67;;;12.68;;
47725;SDS011;33483;48.294;16.388;2022-12-16T07:01:31;21.70;;;12.40;;
47725;SDS011;33483;48.294;16.388;2022-12-16T07:04:16;26.00;;;13.48;;
47725;SDS011;33483;48.294;16.388;2022-12-16T07:07:05;26.83;;;13.70;;
47725;SDS011;33483;48.294;16.388;2022-12-16T07:09:50;18.20;;;10.25;;
47725;SDS011;33483;48.294;16.388;2022-12-16T07:12:36;27.73;;;13.35;;
47725;SDS011;33483;48.294;16.388;2022-12-16T07:15:22;28.50;;;14.80;;
47725;SDS011;33483;48.294;16.388;2022-12-16T07:18:08;26.88;;;14.60;;
47725;SDS011;33483;48.294;16.388;2022-12-16T07:20:53;19.70;;;11.57;;
47725;SDS011;33483;48.294;16.388;2022-12-16T07:23:39;29.42;;;14.82;;
47725;SDS011;33483;48.294;16.388;2022-12-16T07:26:24;19.60;;;10.53;;
47725;SDS011;33483;48.294;16.388;2022-12-16T07:29:10;28.00;;;14.40;;
47725;SDS011;33483;48.294;16.388;2022-12-16T07:31:56;27.55;;;14.02;;
47725;SDS011;33483;48.294;16.388;2022-12-16T07:34:42;28.10;;;14.45;;
47725;SDS011;33483;48.294;16.388;2022-12-16T07:37:31;27.50;;;14.02;;
47725;SDS011;33483;48.294;16.388;2022-12-16T07:40:17;29.35;;;14.68;;
47725;SDS011;33483;48.294;16.388;2022-12-16T07:43:02;31.83;;;15.43;;
47725;SDS011;33483;48.294;16.388;2022-12-16T07:48:34;31.98;;;15.52;;
47725;SDS011;33483;48.294;16.388;2022-12-16T07:51:24;30.35;;;16.02;;
47725;SDS011;33483;48.294;16.388;2022-12-16T07:54:10;35.85;;;16.85;;
47725;SDS011;33483;48.294;16.388;2022-12-16T07:56:56;31.77;;;15.82;;
47725;SDS011;33483;48.294;16.388;2022-12-16T07:59:44;33.00;;;16.70;;
47725;SDS011;33483;48.294;16.388;2022-12-16T08:02:37;36.33;;;17.45;;
47725;SDS011;33483;48.294;16.388;2022-12-16T08:05:23;34.55;;;15.75;;
47725;SDS011;33483;48.294;16.388;2022-12-16T08:08:10;29.92;;;15.55;;
47725;SDS011;33483;48.294;16.388;2022-12-16T08:10:56;30.75;;;15.82;;
47725;SDS011;33483;48.294;16.388;2022-12-16T08:13:42;30.08;;;14.93;;
47725;SDS011;33483;48.294;16.388;2022-12-16T08:16:27;36.42;;;16.70;;
47725;SDS011;33483;48.294;16.388;2022-12-16T08:19:13;34.10;;;18.55;;
47725;SDS011;33483;48.294;16.388;2022-12-16T08:21:59;43.85;;;19.73;;
47725;SDS011;33483;48.294;16.388;2022-12-16T08:24:45;41.00;;;20.58;;
47725;SDS011;33483;48.294;16.388;2022-12-16T08:27:30;44.20;;;21.08;;
47725;SDS011;33483;48.294;16.388;2022-12-16T08:30:16;45.85;;;21.88;;
47725;SDS011;33483;48.294;16.388;2022-12-16T08:33:02;47.53;;;21.63;;
47725;SDS011;33483;48.294;16.388;2022-12-16T08:35:48;52.35;;;24.50;;
47725;SDS011;33483;48.294;16.388;2022-12-16T08:38:34;48.30;;;23.00;;
47725;SDS011;33483;48.294;16.388;2022-12-16T08:41:21;51.00;;;24.20;;
47725;SDS011;33483;48.294;16.388;2022-12-16T08:44:08;51.03;;;22.45;;
47725;SDS011;33483;48.294;16.388;2022-12-16T08:49:40;52.80;;;23.75;;
47725;SDS011;33483;48.294;16.388;2022-12-16T08:52:28;50.35;;;24.17;;
47725;SDS011;33483;48.294;16.388;2022-12-16T08:55:17;53.35;;;25.38;;
47725;SDS011;33483;48.294;16.388;2022-12-16T08:58:02;48.35;;;24.08;;
47725;SDS011;33483;48.294;16.388;2022-12-16T09:00:48;50.42;;;24.40;;
47725;SDS011;33483;48.294;16.388;2022-12-16T09:03:37;48.78;;;23.40;;
47725;SDS011;33483;48.294;16.388;2022-12-16T09:06:23;51.38;;;23.88;;
47725;SDS011;33483;48.294;16.388;2022-12-16T09:09:09;49.40;;;24.77;;
47725;SDS011;33483;48.294;16.388;2022-12-16T09:11:54;49.35;;;23.88;;
47725;SDS011;33483;48.294;16.388;2022-12-16T09:14:40;48.63;;;23.08;;
47725;SDS011;33483;48.294;16.388;2022-12-16T09:17:26;50.78;;;25.00;;
47725;SDS011;33483;48.294;16.388;2022-12-16T09:20:12;50.78;;;23.40;;
47725;SDS011;33483;48.294;16.388;2022-12-16T09:23:01;54.42;;;24.25;;
47725;SDS011;33483;48.294;16.388;2022-12-16T09:25:48;47.58;;;24.25;;
47725;SDS011;33483;48.294;16.388;2022-12-16T09:28:33;42.43;;;18.60;;
47725;SDS011;33483;48.294;16.388;2022-12-16T09:31:20;48.33;;;23.88;;
47725;SDS011;33483;48.294;16.388;2022-12-16T09:34:06;51.42;;;24.60;;
47725;SDS011;33483;48.294;16.388;2022-12-16T09:36:52;49.45;;;24.58;;
47725;SDS011;33483;48.294;16.388;2022-12-16T09:39:37;37.08;;;20.33;;
47725;SDS011;33483;48.294;16.388;2022-12-16T09:45:33;52.33;;;25.48;;
47725;SDS011;33483;48.294;16.388;2022-12-16T09:48:28;54.15;;;25.88;;
47725;SDS011;33483;48.294;16.388;2022-12-16T09:51:19;51.63;;;25.80;;
47725;SDS011;33483;48.294;16.388;2022-12-16T09:54:07;54.25;;;26.23;;
47725;SDS011;33483;48.294;16.388;2022-12-16T09:56:59;57.45;;;28.08;;
47725;SDS011;33483;48.294;16.388;2022-12-16T09:59:55;57.88;;;28.90;;
47725;SDS011;33483;48.294;16.388;2022-12-16T10:02:46;54.78;;;27.13;;
47725;SDS011;33483;48.294;16.388;2022-12-16T10:05:41;56.65;;;28.80;;
47725;SDS011;33483;48.294;16.388;2022-12-16T10:08:40;51.50;;;26.52;;
47725;SDS011;33483;48.294;16.388;2022-12-16T10:11:42;55.78;;;27.58;;
47725;SDS011;33483;48.294;16.388;2022-12-16T10:14:49;52.92;;;26.90;;
47725;SDS011;33483;48.294;16.388;2022-12-16T10:17:44;58.47;;;26.88;;
47725;SDS011;33483;48.294;16.388;2022-12-16T10:20:38;51.83;;;26.33;;
47725;SDS011;33483;48.294;16.388;2022-12-16T10:23:52;47.42;;;24.75;;
47725;SDS011;33483;48.294;16.388;2022-12-16T10:29:46;40.20;;;21.10;;
47725;SDS011;33483;48.294;16.388;2022-12-16T10:35:43;41.03;;;21.25;;
47725;SDS011;33483;48.294;16.388;2022-12-16T10:41:28;43.45;;;21.08;;
47725;SDS011;33483;48.294;16.388;2022-12-16T10:47:35;35.40;;;18.75;;
47725;SDS011;33483;48.294;16.388;2022-12-16T10:53:13;34.78;;;18.08;;
47725;SDS011;33483;48.294;16.388;2022-12-16T10:56:10;32.78;;;18.67;;
47725;SDS011;33483;48.294;16.388;2022-12-16T10:59:08;28.92;;;18.15;;
47725;SDS011;33483;48.294;16.388;2022-12-16T11:01:58;27.35;;;16.77;;
47725;SDS011;33483;48.294;16.388;2022-12-16T11:04:46;30.45;;;17.48;;
47725;SDS011;33483;48.294;16.388;2022-12-16T11:07:33;29.08;;;16.55;;
47725;SDS011;33483;48.294;16.388;2022-12-16T11:13:22;28.88;;;17.17;;
47725;SDS011;33483;48.294;16.388;2022-12-16T11:16:15;28.50;;;16.40;;
47725;SDS011;33483;48.294;16.388;2022-12-16T11:19:01;28.95;;;16.58;;
47725;SDS011;33483;48.294;16.388;2022-12-16T11:21:47;25.58;;;15.38;;
47725;SDS011;33483;48.294;16.388;2022-12-16T11:24:34;24.75;;;15.20;;
47725;SDS011;33483;48.294;16.388;2022-12-16T11:27:40;27.67;;;15.35;;
47725;SDS011;33483;48.294;16.388;2022-12-16T11:30:26;24.38;;;15.20;;
47725;SDS011;33483;48.294;16.388;2022-12-16T11:33:20;24.92;;;14.25;;
47725;SDS011;33483;48.294;16.388;2022-12-16T11:36:15;27.13;;;14.82;;
47725;SDS011;33483;48.294;16.388;2022-12-16T11:39:04;28.50;;;14.63;;
47725;SDS011;33483;48.294;16.388;2022-12-16T11:41:52;23.40;;;13.57;;
47725;SDS011;33483;48.294;16.388;2022-12-16T11:44:40;25.92;;;14.82;;
47725;SDS011;33483;48.294;16.388;2022-12-16T11:50:15;26.90;;;14.00;;
47725;SDS011;33483;48.294;16.388;2022-12-16T11:53:02;23.30;;;13.85;;
47725;SDS011;33483;48.294;16.388;2022-12-16T11:55:52;25.20;;;13.93;;
47725;SDS011;33483;48.294;16.388;2022-12-16T11:58:47;25.08;;;14.57;;
47725;SDS011;33483;48.294;16.388;2022-12-16T12:01:41;24.75;;;14.20;;
47725;SDS011;33483;48.294;16.388;2022-12-16T12:04:34;25.83;;;13.77;;
47725;SDS011;33483;48.294;16.388;2022-12-16T12:07:28;25.10;;;14.18;;
47725;SDS011;33483;48.294;16.388;2022-12-16T12:16:28;26.13;;;14.20;;
47725;SDS011;33483;48.294;16.388;2022-12-16T12:22:44;23.55;;;13.57;;
47725;SDS011;33483;48.294;16.388;2022-12-16T12:38:02;23.02;;;12.68;;
47725;SDS011;33483;48.294;16.388;2022-12-16T12:41:04;24.33;;;13.68;;
47725;SDS011;33483;48.294;16.388;2022-12-16T12:47:14;24.35;;;13.38;;
47725;SDS011;33483;48.294;16.388;2022-12-16T12:50:03;25.23;;;14.90;;
47725;SDS011;33483;48.294;16.388;2022-12-16T12:58:52;25.73;;;14.75;;
47725;SDS011;33483;48.294;16.388;2022-12-16T13:01:44;23.33;;;14.30;;
47725;SDS011;33483;48.294;16.388;2022-12-16T13:04:31;24.10;;;13.80;;
47725;SDS011;33483;48.294;16.388;2022-12-16T13:07:21;24.80;;;13.95;;
47725;SDS011;33483;48.294;16.388;2022-12-16T13:16:00;26.98;;;15.48;;
47725;SDS011;33483;48.294;16.388;2022-12-16T13:18:56;30.45;;;15.85;;
47725;SDS011;33483;48.294;16.388;2022-12-16T13:22:30;24.45;;;14.73;;
47725;SDS011;33483;48.294;16.388;2022-12-16T13:31:23;30.42;;;15.93;;
47725;SDS011;33483;48.294;16.388;2022-12-16T13:34:21;31.00;;;15.93;;
47725;SDS011;33483;48.294;16.388;2022-12-16T13:37:24;31.48;;;17.25;;
47725;SDS011;33483;48.294;16.388;2022-12-16T13:40:18;31.38;;;16.92;;
47725;SDS011;33483;48.294;16.388;2022-12-16T13:43:17;32.10;;;17.63;;
47725;SDS011;33483;48.294;16.388;2022-12-16T13:52:31;35.33;;;18.95;;
47725;SDS011;33483;48.294;16.388;2022-12-16T13:55:38;39.70;;;20.33;;
47725;SDS011;33483;48.294;16.388;2022-12-16T13:58:41;34.95;;;19.75;;
47725;SDS011;33483;48.294;16.388;2022-12-16T14:01:37;36.35;;;20.25;;
47725;SDS011;33483;48.294;16.388;2022-12-16T14:04:33;40.38;;;20.38;;
47725;SDS011;33483;48.294;16.388;2022-12-16T14:07:22;42.08;;;20.65;;
47725;SDS011;33483;48.294;16.388;2022-12-16T14:10:26;42.15;;;21.83;;
47725;SDS011;33483;48.294;16.388;2022-12-16T14:13:30;42.45;;;22.38;;
47725;SDS011;33483;48.294;16.388;2022-12-16T14:26:19;43.67;;;20.70;;
47725;SDS011;33483;48.294;16.388;2022-12-16T14:29:12;35.00;;;17.63;;
47725;SDS011;33483;48.294;16.388;2022-12-16T14:32:37;45.60;;;23.17;;
47725;SDS011;33483;48.294;16.388;2022-12-16T14:35:19;54.50;;;24.38;;
47725;SDS011;33483;48.294;16.388;2022-12-16T14:38:25;50.50;;;23.67;;
47725;SDS011;33483;48.294;16.388;2022-12-16T14:41:17;52.45;;;25.02;;
47725;SDS011;33483;48.294;16.388;2022-12-16T14:47:12;54.35;;;24.88;;
47725;SDS011;33483;48.294;16.388;2022-12-16T14:50:19;60.00;;;27.30;;
47725;SDS011;33483;48.294;16.388;2022-12-16T14:53:15;54.83;;;26.10;;
47725;SDS011;33483;48.294;16.388;2022-12-16T14:56:14;59.42;;;28.60;;
47725;SDS011;33483;48.294;16.388;2022-12-16T15:05:09;60.17;;;27.35;;
47725;SDS011;33483;48.294;16.388;2022-12-16T15:07:56;60.85;;;27.55;;
47725;SDS011;33483;48.294;16.388;2022-12-16T15:10:44;58.55;;;27.00;;
47725;SDS011;33483;48.294;16.388;2022-12-16T15:16:28;60.10;;;27.52;;
47725;SDS011;33483;48.294;16.388;2022-12-16T15:19:21;55.78;;;26.90;;
47725;SDS011;33483;48.294;16.388;2022-12-16T15:22:12;66.97;;;28.42;;
47725;SDS011;33483;48.294;16.388;2022-12-16T15:25:00;64.35;;;28.35;;
47725;SDS011;33483;48.294;16.388;2022-12-16T15:27:55;62.05;;;26.10;;
47725;SDS011;33483;48.294;16.388;2022-12-16T15:30:42;59.88;;;30.02;;
47725;SDS011;33483;48.294;16.388;2022-12-16T15:33:34;60.15;;;27.15;;
47725;SDS011;33483;48.294;16.388;2022-12-16T15:42:21;62.17;;;27.38;;
47725;SDS011;33483;48.294;16.388;2022-12-16T15:45:17;65.13;;;29.23;;
47725;SDS011;33483;48.294;16.388;2022-12-16T15:48:13;64.72;;;27.98;;
47725;SDS011;33483;48.294;16.388;2022-12-16T15:51:20;66.18;;;29.23;;
47725;SDS011;33483;48.294;16.388;2022-12-16T15:54:18;68.50;;;28.65;;
47725;SDS011;33483;48.294;16.388;2022-12-16T16:00:17;68.53;;;28.67;;
47725;SDS011;33483;48.294;16.388;2022-12-16T16:03:03;64.78;;;27.48;;
47725;SDS011;33483;48.294;16.388;2022-12-16T16:05:51;59.67;;;29.40;;
47725;SDS011;33483;48.294;16.388;2022-12-16T16:08:38;63.30;;;29.10;;
47725;SDS011;33483;48.294;16.388;2022-12-16T16:11:26;62.40;;;27.60;;
47725;SDS011;33483;48.294;16.388;2022-12-16T16:14:12;48.97;;;23.23;;
47725;SDS011;33483;48.294;16.388;2022-12-16T16:17:01;64.72;;;28.83;;
47725;SDS011;33483;48.294;16.388;2022-12-16T16:20:04;62.90;;;27.85;;
47725;SDS011;33483;48.294;16.388;2022-12-16T16:22:51;66.93;;;29.45;;
47725;SDS011;33483;48.294;16.388;2022-12-16T16:25:39;61.95;;;29.30;;
47725;SDS011;33483;48.294;16.388;2022-12-16T16:28:30;65.85;;;29.55;;
47725;SDS011;33483;48.294;16.388;2022-12-16T16:31:19;66.18;;;27.80;;
47725;SDS011;33483;48.294;16.388;2022-12-16T16:34:05;68.78;;;30.08;;
47725;SDS011;33483;48.294;16.388;2022-12-16T16:36:55;49.58;;;22.27;;
47725;SDS011;33483;48.294;16.388;2022-12-16T16:39:42;67.47;;;28.55;;
47725;SDS011;33483;48.294;16.388;2022-12-16T16:42:29;62.75;;;29.67;;
47725;SDS011;33483;48.294;16.388;2022-12-16T16:45:15;70.68;;;31.27;;
47725;SDS011;33483;48.294;16.388;2022-12-16T16:48:05;50.47;;;23.85;;
47725;SDS011;33483;48.294;16.388;2022-12-16T16:50:56;74.28;;;30.85;;
47725;SDS011;33483;48.294;16.388;2022-12-16T16:53:42;71.22;;;29.77;;
47725;SDS011;33483;48.294;16.388;2022-12-16T16:56:30;67.53;;;30.15;;
47725;SDS011;33483;48.294;16.388;2022-12-16T16:59:17;78.65;;;32.97;;
47725;SDS011;33483;48.294;16.388;2022-12-16T17:02:16;70.95;;;30.27;;
47725;SDS011;33483;48.294;16.388;2022-12-16T17:05:07;72.75;;;31.23;;
47725;SDS011;33483;48.294;16.388;2022-12-16T17:07:54;69.35;;;31.42;;
47725;SDS011;33483;48.294;16.388;2022-12-16T17:10:41;73.10;;;30.48;;
47725;SDS011;33483;48.294;16.388;2022-12-16T17:13:27;70.82;;;31.33;;
47725;SDS011;33483;48.294;16.388;2022-12-16T17:16:13;81.20;;;32.60;;
47725;SDS011;33483;48.294;16.388;2022-12-16T17:19:00;71.55;;;30.75;;
47725;SDS011;33483;48.294;16.388;2022-12-16T17:21:46;73.00;;;32.10;;
47725;SDS011;33483;48.294;16.388;2022-12-16T17:24:32;75.43;;;32.80;;
47725;SDS011;33483;48.294;16.388;2022-12-16T17:27:23;83.78;;;33.25;;
47725;SDS011;33483;48.294;16.388;2022-12-16T17:30:13;73.80;;;32.58;;
47725;SDS011;33483;48.294;16.388;2022-12-16T17:33:01;79.00;;;35.47;;
47725;SDS011;33483;48.294;16.388;2022-12-16T17:35:48;76.35;;;32.83;;
47725;SDS011;33483;48.294;16.388;2022-12-16T17:38:39;90.88;;;37.42;;
47725;SDS011;33483;48.294;16.388;2022-12-16T17:41:30;77.07;;;34.63;;
47725;SDS011;33483;48.294;16.388;2022-12-16T17:44:17;69.53;;;31.73;;
47725;SDS011;33483;48.294;16.388;2022-12-16T17:47:03;77.85;;;34.17;;
47725;SDS011;33483;48.294;16.388;2022-12-16T17:49:49;80.85;;;34.22;;
47725;SDS011;33483;48.294;16.388;2022-12-16T17:55:21;74.10;;;31.95;;
47725;SDS011;33483;48.294;16.388;2022-12-16T17:58:08;82.40;;;34.00;;
47725;SDS011;33483;48.294;16.388;2022-12-16T18:01:03;79.38;;;34.60;;
47725;SDS011;33483;48.294;16.388;2022-12-16T18:03:54;73.55;;;34.20;;
47725;SDS011;33483;48.294;16.388;2022-12-16T18:06:39;86.90;;;35.67;;
47725;SDS011;33483;48.294;16.388;2022-12-16T18:09:26;82.57;;;33.63;;
47725;SDS011;33483;48.294;16.388;2022-12-16T18:12:12;82.22;;;35.20;;
47725;SDS011;33483;48.294;16.388;2022-12-16T18:14:58;78.90;;;34.45;;
47725;SDS011;33483;48.294;16.388;2022-12-16T18:17:46;77.80;;;34.83;;
47725;SDS011;33483;48.294;16.388;2022-12-16T18:20:34;84.78;;;36.15;;
47725;SDS011;33483;48.294;16.388;2022-12-16T18:23:20;69.28;;;31.75;;
47725;SDS011;33483;48.294;16.388;2022-12-16T18:26:07;80.07;;;33.90;;
47725;SDS011;33483;48.294;16.388;2022-12-16T18:28:55;75.38;;;32.55;;
47725;SDS011;33483;48.294;16.388;2022-12-16T18:31:41;75.90;;;32.63;;
47725;SDS011;33483;48.294;16.388;2022-12-16T18:34:27;72.20;;;33.83;;